sensor_id;sensor_type;location;lat;lon;timestamp;P1;durP1;ratioP1;P2;durP2;ratioP2
11887;SDS011;6003;42.756;23.130;2022-12-10T00:02:08;6.53;;;3.80;;
11887;SDS011;6003;42.756;23.130;2022-12-10T00:04:36;4.93;;;3.67;;
11887;SDS011;6003;42.756;23.130;2022-12-10T00:07:05;8.97;;;3.73;;
11887;SDS011;6003;42.756;23.130;2022-12-10T00:09:31;10.90;;;4.00;;
11887;SDS011;6003;42.756;23.130;2022-12-10T00:12:00;4.50;;;3.27;;
11887;SDS011;6003;42.756;23.130;2022-12-10T00:14:26;12.70;;;3.67;;
11887;SDS011;6003;42.756;23.130;2022-12-10T00:16:53;8.00;;;3.83;;
11887;SDS011;6003;42.756;23.130;2022-12-10T00:19:20;7.50;;;4.30;;
11887;SDS011;6003;42.756;23.130;2022-12-10T00:21:47;6.20;;;3.40;;
11887;SDS011;6003;42.756;23.130;2022-12-10T00:24:14;4.83;;;2.93;;
11887;SDS011;6003;42.756;23.130;2022-12-10T00:26:40;8.63;;;3.13;;
11887;SDS011;6003;42.756;23.130;2022-12-10T00:29:10;2.90;;;2.60;;
11887;SDS011;6003;42.756;23.130;2022-12-10T00:31:38;4.70;;;3.03;;
11887;SDS011;6003;42.756;23.130;2022-12-10T00:34:06;4.00;;;2.97;;
11887;SDS011;6003;42.756;23.130;2022-12-10T00:36:35;8.10;;;3.40;;
11887;SDS011;6003;42.756;23.130;2022-12-10T00:39:04;5.60;;;3.17;;
11887;SDS011;6003;42.756;23.130;2022-12-10T00:41:31;6.07;;;3.10;;
11887;SDS011;6003;42.756;23.130;2022-12-10T00:43:58;6.60;;;3.53;;
11887;SDS011;6003;42.756;23.130;2022-12-10T00:46:27;6.83;;;3.50;;
11887;SDS011;6003;42.756;23.130;2022-12-10T00:48:54;4.87;;;3.07;;
11887;SDS011;6003;42.756;23.130;2022-12-10T00:51:21;7.03;;;3.23;;
11887;SDS011;6003;42.756;23.130;2022-12-10T00:53:49;6.77;;;3.37;;
11887;SDS011;6003;42.756;23.130;2022-12-10T00:56:18;6.00;;;2.93;;
11887;SDS011;6003;42.756;23.130;2022-12-10T00:58:46;5.97;;;3.10;;
11887;SDS011;6003;42.756;23.130;2022-12-10T01:01:15;5.87;;;3.20;;
11887;SDS011;6003;42.756;23.130;2022-12-10T01:03:45;3.50;;;2.93;;
11887;SDS011;6003;42.756;23.130;2022-12-10T01:06:14;3.53;;;3.23;;
11887;SDS011;6003;42.756;23.130;2022-12-10T01:08:43;7.10;;;3.07;;
11887;SDS011;6003;42.756;23.130;2022-12-10T01:11:11;3.20;;;2.90;;
11887;SDS011;6003;42.756;23.130;2022-12-10T01:13:39;6.83;;;3.10;;
11887;SDS011;6003;42.756;23.130;2022-12-10T01:16:07;3.73;;;3.40;;
11887;SDS011;6003;42.756;23.130;2022-12-10T01:18:35;5.27;;;3.33;;
11887;SDS011;6003;42.756;23.130;2022-12-10T01:21:05;9.57;;;3.30;;
11887;SDS011;6003;42.756;23.130;2022-12-10T01:23:34;5.13;;;3.00;;
11887;SDS011;6003;42.756;23.130;2022-12-10T01:26:02;5.90;;;3.37;;
11887;SDS011;6003;42.756;23.130;2022-12-10T01:28:30;4.83;;;3.70;;
11887;SDS011;6003;42.756;23.130;2022-12-10T01:31:01;7.07;;;3.73;;
11887;SDS011;6003;42.756;23.130;2022-12-10T01:33:29;7.43;;;2.73;;
11887;SDS011;6003;42.756;23.130;2022-12-10T01:35:56;7.57;;;2.93;;
11887;SDS011;6003;42.756;23.130;2022-12-10T01:38:24;3.43;;;3.13;;
11887;SDS011;6003;42.756;23.130;2022-12-10T01:40:51;7.77;;;3.77;;
11887;SDS011;6003;42.756;23.130;2022-12-10T01:43:18;5.37;;;3.60;;
11887;SDS011;6003;42.756;23.130;2022-12-10T01:45:45;6.40;;;3.73;;
11887;SDS011;6003;42.756;23.130;2022-12-10T01:48:11;4.87;;;3.50;;
11887;SDS011;6003;42.756;23.130;2022-12-10T01:50:38;10.33;;;3.67;;
11887;SDS011;6003;42.756;23.130;2022-12-10T01:53:05;15.57;;;3.67;;
11887;SDS011;6003;42.756;23.130;2022-12-10T01:55:39;8.97;;;3.63;;
11887;SDS011;6003;42.756;23.130;2022-12-10T01:58:09;5.30;;;3.17;;
11887;SDS011;6003;42.756;23.130;2022-12-10T02:00:40;9.47;;;3.97;;
11887;SDS011;6003;42.756;23.130;2022-12-10T02:03:13;5.97;;;3.20;;
11887;SDS011;6003;42.756;23.130;2022-12-10T02:05:47;4.80;;;3.20;;
11887;SDS011;6003;42.756;23.130;2022-12-10T02:08:24;7.80;;;3.47;;
11887;SDS011;6003;42.756;23.130;2022-12-10T02:10:59;5.17;;;3.13;;
11887;SDS011;6003;42.756;23.130;2022-12-10T02:13:33;6.67;;;3.30;;
11887;SDS011;6003;42.756;23.130;2022-12-10T02:16:06;6.40;;;3.13;;
11887;SDS011;6003;42.756;23.130;2022-12-10T02:18:39;5.27;;;2.80;;
11887;SDS011;6003;42.756;23.130;2022-12-10T02:21:14;6.37;;;3.20;;
11887;SDS011;6003;42.756;23.130;2022-12-10T02:23:46;4.40;;;2.83;;
11887;SDS011;6003;42.756;23.130;2022-12-10T02:26:20;5.00;;;3.00;;
11887;SDS011;6003;42.756;23.130;2022-12-10T02:28:51;7.63;;;3.40;;
11887;SDS011;6003;42.756;23.130;2022-12-10T02:31:32;4.77;;;2.97;;
11887;SDS011;6003;42.756;23.130;2022-12-10T02:34:00;4.20;;;2.70;;
11887;SDS011;6003;42.756;23.130;2022-12-10T02:36:31;5.57;;;2.73;;
11887;SDS011;6003;42.756;23.130;2022-12-10T02:39:01;6.20;;;3.03;;
11887;SDS011;6003;42.756;23.130;2022-12-10T02:41:33;5.43;;;3.00;;
11887;SDS011;6003;42.756;23.130;2022-12-10T02:44:04;12.53;;;3.17;;
11887;SDS011;6003;42.756;23.130;2022-12-10T02:46:35;3.43;;;3.00;;
11887;SDS011;6003;42.756;23.130;2022-12-10T02:49:04;6.33;;;3.00;;
11887;SDS011;6003;42.756;23.130;2022-12-10T02:51:33;5.10;;;2.47;;
11887;SDS011;6003;42.756;23.130;2022-12-10T02:54:00;5.33;;;3.00;;
11887;SDS011;6003;42.756;23.130;2022-12-10T02:56:29;3.20;;;2.77;;
11887;SDS011;6003;42.756;23.130;2022-12-10T02:59:06;4.40;;;2.90;;
11887;SDS011;6003;42.756;23.130;2022-12-10T03:01:40;6.97;;;3.10;;
11887;SDS011;6003;42.756;23.130;2022-12-10T03:04:13;4.67;;;2.70;;
11887;SDS011;6003;42.756;23.130;2022-12-10T03:06:46;3.90;;;2.77;;
11887;SDS011;6003;42.756;23.130;2022-12-10T03:09:19;5.43;;;2.97;;
11887;SDS011;6003;42.756;23.130;2022-12-10T03:11:49;3.50;;;2.80;;
11887;SDS011;6003;42.756;23.130;2022-12-10T03:14:25;5.87;;;3.57;;
11887;SDS011;6003;42.756;23.130;2022-12-10T03:16:56;5.33;;;3.10;;
11887;SDS011;6003;42.756;23.130;2022-12-10T03:19:26;6.77;;;3.13;;
11887;SDS011;6003;42.756;23.130;2022-12-10T03:21:58;7.97;;;3.40;;
11887;SDS011;6003;42.756;23.130;2022-12-10T03:24:27;10.20;;;3.57;;
11887;SDS011;6003;42.756;23.130;2022-12-10T03:26:54;4.47;;;3.50;;
11887;SDS011;6003;42.756;23.130;2022-12-10T03:29:27;4.50;;;3.40;;
11887;SDS011;6003;42.756;23.130;2022-12-10T03:31:59;8.10;;;3.77;;
11887;SDS011;6003;42.756;23.130;2022-12-10T03:34:26;8.03;;;4.00;;
11887;SDS011;6003;42.756;23.130;2022-12-10T03:36:54;7.27;;;3.87;;
11887;SDS011;6003;42.756;23.130;2022-12-10T03:39:21;6.00;;;3.63;;
11887;SDS011;6003;42.756;23.130;2022-12-10T03:41:49;10.17;;;3.83;;
11887;SDS011;6003;42.756;23.130;2022-12-10T03:44:27;11.50;;;3.90;;
11887;SDS011;6003;42.756;23.130;2022-12-10T03:46:55;4.87;;;3.47;;
11887;SDS011;6003;42.756;23.130;2022-12-10T03:49:22;10.27;;;3.93;;
11887;SDS011;6003;42.756;23.130;2022-12-10T03:51:49;7.10;;;3.83;;
11887;SDS011;6003;42.756;23.130;2022-12-10T03:54:15;7.00;;;3.97;;
11887;SDS011;6003;42.756;23.130;2022-12-10T03:56:52;5.63;;;3.60;;
11887;SDS011;6003;42.756;23.130;2022-12-10T03:59:18;5.30;;;3.33;;
11887;SDS011;6003;42.756;23.130;2022-12-10T04:01:47;7.17;;;3.20;;
11887;SDS011;6003;42.756;23.130;2022-12-10T04:04:14;4.57;;;3.57;;
11887;SDS011;6003;42.756;23.130;2022-12-10T04:06:41;6.07;;;2.97;;
11887;SDS011;6003;42.756;23.130;2022-12-10T04:09:08;7.03;;;3.37;;
11887;SDS011;6003;42.756;23.130;2022-12-10T04:11:36;3.83;;;3.03;;
11887;SDS011;6003;42.756;23.130;2022-12-10T04:14:03;4.57;;;3.50;;
11887;SDS011;6003;42.756;23.130;2022-12-10T04:16:48;5.60;;;3.27;;
11887;SDS011;6003;42.756;23.130;2022-12-10T04:19:16;3.03;;;2.77;;
11887;SDS011;6003;42.756;23.130;2022-12-10T04:21:44;5.40;;;3.00;;
11887;SDS011;6003;42.756;23.130;2022-12-10T04:24:29;6.50;;;3.07;;
11887;SDS011;6003;42.756;23.130;2022-12-10T04:27:16;3.67;;;2.83;;
11887;SDS011;6003;42.756;23.130;2022-12-10T04:29:45;4.47;;;3.23;;
11887;SDS011;6003;42.756;23.130;2022-12-10T04:32:13;8.13;;;3.07;;
11887;SDS011;6003;42.756;23.130;2022-12-10T04:34:40;6.90;;;3.37;;
11887;SDS011;6003;42.756;23.130;2022-12-10T04:37:07;5.10;;;3.40;;
11887;SDS011;6003;42.756;23.130;2022-12-10T04:39:36;3.83;;;2.93;;
11887;SDS011;6003;42.756;23.130;2022-12-10T04:42:04;5.27;;;3.10;;
11887;SDS011;6003;42.756;23.130;2022-12-10T04:44:31;5.60;;;3.10;;
11887;SDS011;6003;42.756;23.130;2022-12-10T04:46:58;3.40;;;2.77;;
11887;SDS011;6003;42.756;23.130;2022-12-10T04:49:27;9.00;;;2.80;;
11887;SDS011;6003;42.756;23.130;2022-12-10T04:51:53;4.87;;;2.90;;
11887;SDS011;6003;42.756;23.130;2022-12-10T04:54:21;2.77;;;2.33;;
11887;SDS011;6003;42.756;23.130;2022-12-10T04:56:48;4.77;;;2.70;;
11887;SDS011;6003;42.756;23.130;2022-12-10T04:59:15;3.67;;;2.80;;
11887;SDS011;6003;42.756;23.130;2022-12-10T05:01:42;2.87;;;2.37;;
11887;SDS011;6003;42.756;23.130;2022-12-10T05:04:10;3.23;;;2.87;;
11887;SDS011;6003;42.756;23.130;2022-12-10T05:06:40;8.00;;;3.17;;
11887;SDS011;6003;42.756;23.130;2022-12-10T05:09:07;3.93;;;2.50;;
11887;SDS011;6003;42.756;23.130;2022-12-10T05:11:36;3.07;;;2.57;;
11887;SDS011;6003;42.756;23.130;2022-12-10T05:14:03;4.20;;;2.50;;
11887;SDS011;6003;42.756;23.130;2022-12-10T05:16:30;4.53;;;2.70;;
11887;SDS011;6003;42.756;23.130;2022-12-10T05:18:59;3.13;;;2.57;;
11887;SDS011;6003;42.756;23.130;2022-12-10T05:21:27;5.40;;;3.10;;
11887;SDS011;6003;42.756;23.130;2022-12-10T05:24:16;6.83;;;2.70;;
11887;SDS011;6003;42.756;23.130;2022-12-10T05:26:43;3.00;;;2.40;;
11887;SDS011;6003;42.756;23.130;2022-12-10T05:29:11;4.43;;;2.37;;
11887;SDS011;6003;42.756;23.130;2022-12-10T05:31:39;3.60;;;2.77;;
11887;SDS011;6003;42.756;23.130;2022-12-10T05:34:06;5.83;;;2.73;;
11887;SDS011;6003;42.756;23.130;2022-12-10T05:36:33;6.77;;;2.73;;
11887;SDS011;6003;42.756;23.130;2022-12-10T05:39:00;6.90;;;2.53;;
11887;SDS011;6003;42.756;23.130;2022-12-10T05:41:29;5.87;;;3.03;;
11887;SDS011;6003;42.756;23.130;2022-12-10T05:43:58;3.47;;;2.03;;
11887;SDS011;6003;42.756;23.130;2022-12-10T05:46:25;4.10;;;2.47;;
11887;SDS011;6003;42.756;23.130;2022-12-10T05:48:53;4.77;;;2.50;;
11887;SDS011;6003;42.756;23.130;2022-12-10T05:51:22;3.00;;;2.60;;
11887;SDS011;6003;42.756;23.130;2022-12-10T05:53:50;2.60;;;2.40;;
11887;SDS011;6003;42.756;23.130;2022-12-10T05:56:20;5.33;;;3.07;;
11887;SDS011;6003;42.756;23.130;2022-12-10T05:58:52;3.77;;;2.77;;
11887;SDS011;6003;42.756;23.130;2022-12-10T06:01:21;2.87;;;2.10;;
11887;SDS011;6003;42.756;23.130;2022-12-10T06:03:50;5.53;;;2.40;;
11887;SDS011;6003;42.756;23.130;2022-12-10T06:06:19;6.60;;;2.30;;
11887;SDS011;6003;42.756;23.130;2022-12-10T06:08:47;4.40;;;2.00;;
11887;SDS011;6003;42.756;23.130;2022-12-10T06:11:13;4.33;;;2.13;;
11887;SDS011;6003;42.756;23.130;2022-12-10T06:13:40;2.73;;;2.40;;
11887;SDS011;6003;42.756;23.130;2022-12-10T06:16:09;5.77;;;2.07;;
11887;SDS011;6003;42.756;23.130;2022-12-10T06:18:37;2.53;;;1.90;;
11887;SDS011;6003;42.756;23.130;2022-12-10T06:21:04;6.57;;;1.87;;
11887;SDS011;6003;42.756;23.130;2022-12-10T06:23:33;3.57;;;2.03;;
11887;SDS011;6003;42.756;23.130;2022-12-10T06:26:02;2.17;;;2.00;;
11887;SDS011;6003;42.756;23.130;2022-12-10T06:28:30;2.60;;;1.90;;
11887;SDS011;6003;42.756;23.130;2022-12-10T06:30:57;2.90;;;2.07;;
11887;SDS011;6003;42.756;23.130;2022-12-10T06:33:25;1.80;;;1.70;;
11887;SDS011;6003;42.756;23.130;2022-12-10T06:35:53;3.93;;;2.00;;
11887;SDS011;6003;42.756;23.130;2022-12-10T06:38:20;2.00;;;1.80;;
11887;SDS011;6003;42.756;23.130;2022-12-10T06:40:47;1.90;;;1.60;;
11887;SDS011;6003;42.756;23.130;2022-12-10T06:43:13;2.63;;;2.07;;
11887;SDS011;6003;42.756;23.130;2022-12-10T06:45:40;5.03;;;1.77;;
11887;SDS011;6003;42.756;23.130;2022-12-10T06:48:08;6.17;;;1.70;;
11887;SDS011;6003;42.756;23.130;2022-12-10T06:50:36;5.27;;;2.20;;
11887;SDS011;6003;42.756;23.130;2022-12-10T06:53:03;3.27;;;1.70;;
11887;SDS011;6003;42.756;23.130;2022-12-10T06:55:30;2.27;;;2.00;;
11887;SDS011;6003;42.756;23.130;2022-12-10T06:57:57;5.60;;;1.83;;
11887;SDS011;6003;42.756;23.130;2022-12-10T07:00:24;3.20;;;1.90;;
11887;SDS011;6003;42.756;23.130;2022-12-10T07:02:51;3.97;;;1.87;;
11887;SDS011;6003;42.756;23.130;2022-12-10T07:05:17;2.63;;;2.43;;
11887;SDS011;6003;42.756;23.130;2022-12-10T07:07:46;3.00;;;2.23;;
11887;SDS011;6003;42.756;23.130;2022-12-10T07:10:12;1.77;;;1.67;;
11887;SDS011;6003;42.756;23.130;2022-12-10T07:12:39;4.87;;;2.23;;
11887;SDS011;6003;42.756;23.130;2022-12-10T07:15:07;2.30;;;1.60;;
11887;SDS011;6003;42.756;23.130;2022-12-10T07:17:34;1.87;;;1.60;;
11887;SDS011;6003;42.756;23.130;2022-12-10T07:20:01;2.30;;;1.67;;
11887;SDS011;6003;42.756;23.130;2022-12-10T07:22:28;4.17;;;2.00;;
11887;SDS011;6003;42.756;23.130;2022-12-10T07:24:56;4.43;;;1.90;;
11887;SDS011;6003;42.756;23.130;2022-12-10T07:27:23;2.73;;;1.60;;
11887;SDS011;6003;42.756;23.130;2022-12-10T07:29:51;2.60;;;2.17;;
11887;SDS011;6003;42.756;23.130;2022-12-10T07:32:18;2.63;;;1.90;;
11887;SDS011;6003;42.756;23.130;2022-12-10T07:34:45;1.93;;;1.83;;
11887;SDS011;6003;42.756;23.130;2022-12-10T07:37:12;4.47;;;1.97;;
11887;SDS011;6003;42.756;23.130;2022-12-10T07:39:38;2.67;;;2.03;;
11887;SDS011;6003;42.756;23.130;2022-12-10T07:42:09;2.47;;;1.93;;
11887;SDS011;6003;42.756;23.130;2022-12-10T07:44:36;1.83;;;1.73;;
11887;SDS011;6003;42.756;23.130;2022-12-10T07:47:03;8.43;;;1.47;;
11887;SDS011;6003;42.756;23.130;2022-12-10T07:49:30;3.63;;;1.93;;
11887;SDS011;6003;42.756;23.130;2022-12-10T07:51:56;3.43;;;1.90;;
11887;SDS011;6003;42.756;23.130;2022-12-10T07:54:23;5.43;;;2.07;;
11887;SDS011;6003;42.756;23.130;2022-12-10T07:56:50;1.60;;;1.50;;
11887;SDS011;6003;42.756;23.130;2022-12-10T07:59:18;4.77;;;1.80;;
11887;SDS011;6003;42.756;23.130;2022-12-10T08:01:45;7.10;;;1.70;;
11887;SDS011;6003;42.756;23.130;2022-12-10T08:04:12;5.00;;;2.67;;
11887;SDS011;6003;42.756;23.130;2022-12-10T08:06:39;5.73;;;2.20;;
11887;SDS011;6003;42.756;23.130;2022-12-10T08:09:06;3.53;;;1.83;;
11887;SDS011;6003;42.756;23.130;2022-12-10T08:11:33;6.27;;;2.10;;
11887;SDS011;6003;42.756;23.130;2022-12-10T08:14:00;4.97;;;3.50;;
11887;SDS011;6003;42.756;23.130;2022-12-10T08:16:28;2.60;;;2.10;;
11887;SDS011;6003;42.756;23.130;2022-12-10T08:18:58;5.53;;;2.53;;
11887;SDS011;6003;42.756;23.130;2022-12-10T08:21:26;2.43;;;2.23;;
11887;SDS011;6003;42.756;23.130;2022-12-10T08:23:54;2.30;;;2.10;;
11887;SDS011;6003;42.756;23.130;2022-12-10T08:26:22;2.33;;;2.10;;
11887;SDS011;6003;42.756;23.130;2022-12-10T08:28:50;6.03;;;1.70;;
11887;SDS011;6003;42.756;23.130;2022-12-10T08:31:18;2.23;;;2.03;;
11887;SDS011;6003;42.756;23.130;2022-12-10T08:33:48;5.10;;;2.17;;
11887;SDS011;6003;42.756;23.130;2022-12-10T08:36:15;2.70;;;1.60;;
11887;SDS011;6003;42.756;23.130;2022-12-10T08:38:43;1.63;;;1.30;;
11887;SDS011;6003;42.756;23.130;2022-12-10T08:41:10;2.00;;;1.50;;
11887;SDS011;6003;42.756;23.130;2022-12-10T08:43:39;2.07;;;1.60;;
11887;SDS011;6003;42.756;23.130;2022-12-10T08:46:07;2.20;;;2.10;;
11887;SDS011;6003;42.756;23.130;2022-12-10T08:48:35;2.87;;;1.50;;
11887;SDS011;6003;42.756;23.130;2022-12-10T08:51:04;2.00;;;1.40;;
11887;SDS011;6003;42.756;23.130;2022-12-10T08:53:32;2.23;;;1.47;;
11887;SDS011;6003;42.756;23.130;2022-12-10T08:55:59;1.70;;;1.43;;
11887;SDS011;6003;42.756;23.130;2022-12-10T08:58:25;1.70;;;1.60;;
11887;SDS011;6003;42.756;23.130;2022-12-10T09:00:52;2.37;;;1.40;;
11887;SDS011;6003;42.756;23.130;2022-12-10T09:03:20;1.40;;;1.40;;
11887;SDS011;6003;42.756;23.130;2022-12-10T09:05:47;2.80;;;1.90;;
11887;SDS011;6003;42.756;23.130;2022-12-10T09:08:15;2.40;;;1.60;;
11887;SDS011;6003;42.756;23.130;2022-12-10T09:10:42;1.73;;;1.63;;
11887;SDS011;6003;42.756;23.130;2022-12-10T09:13:09;1.80;;;1.40;;
11887;SDS011;6003;42.756;23.130;2022-12-10T09:15:36;1.60;;;1.50;;
11887;SDS011;6003;42.756;23.130;2022-12-10T09:18:03;4.13;;;1.57;;
11887;SDS011;6003;42.756;23.130;2022-12-10T09:20:30;4.70;;;2.20;;
11887;SDS011;6003;42.756;23.130;2022-12-10T09:22:56;2.07;;;1.87;;
11887;SDS011;6003;42.756;23.130;2022-12-10T09:25:25;1.60;;;1.50;;
11887;SDS011;6003;42.756;23.130;2022-12-10T09:27:52;4.37;;;2.70;;
11887;SDS011;6003;42.756;23.130;2022-12-10T09:30:18;2.50;;;1.90;;
11887;SDS011;6003;42.756;23.130;2022-12-10T09:32:45;4.13;;;2.33;;
11887;SDS011;6003;42.756;23.130;2022-12-10T09:35:12;2.20;;;2.00;;
11887;SDS011;6003;42.756;23.130;2022-12-10T09:37:39;7.60;;;3.13;;
11887;SDS011;6003;42.756;23.130;2022-12-10T09:40:06;2.47;;;1.80;;
11887;SDS011;6003;42.756;23.130;2022-12-10T09:45:29;3.17;;;1.70;;
11887;SDS011;6003;42.756;23.130;2022-12-10T09:48:04;3.10;;;1.73;;
11887;SDS011;6003;42.756;23.130;2022-12-10T09:50:44;3.30;;;1.50;;
11887;SDS011;6003;42.756;23.130;2022-12-10T09:53:19;2.13;;;1.30;;
11887;SDS011;6003;42.756;23.130;2022-12-10T09:55:48;2.43;;;1.70;;
11887;SDS011;6003;42.756;23.130;2022-12-10T09:58:17;2.10;;;1.90;;
11887;SDS011;6003;42.756;23.130;2022-12-10T10:00:47;1.40;;;1.40;;
11887;SDS011;6003;42.756;23.130;2022-12-10T10:03:17;1.93;;;1.83;;
11887;SDS011;6003;42.756;23.130;2022-12-10T10:05:45;2.80;;;2.20;;
11887;SDS011;6003;42.756;23.130;2022-12-10T10:08:26;1.80;;;1.70;;
11887;SDS011;6003;42.756;23.130;2022-12-10T10:10:58;3.43;;;2.30;;
11887;SDS011;6003;42.756;23.130;2022-12-10T10:13:27;2.63;;;2.40;;
11887;SDS011;6003;42.756;23.130;2022-12-10T10:16:07;2.63;;;2.27;;
11887;SDS011;6003;42.756;23.130;2022-12-10T10:18:45;4.03;;;2.40;;
11887;SDS011;6003;42.756;23.130;2022-12-10T10:21:16;2.80;;;2.30;;
11887;SDS011;6003;42.756;23.130;2022-12-10T10:23:46;3.23;;;2.10;;
11887;SDS011;6003;42.756;23.130;2022-12-10T10:26:14;1.70;;;1.57;;
11887;SDS011;6003;42.756;23.130;2022-12-10T10:28:41;2.90;;;1.97;;
11887;SDS011;6003;42.756;23.130;2022-12-10T10:31:16;1.90;;;1.80;;
11887;SDS011;6003;42.756;23.130;2022-12-10T10:33:50;1.63;;;1.53;;
11887;SDS011;6003;42.756;23.130;2022-12-10T10:36:24;6.60;;;2.63;;
11887;SDS011;6003;42.756;23.130;2022-12-10T10:38:53;1.93;;;1.83;;
11887;SDS011;6003;42.756;23.130;2022-12-10T10:41:20;1.90;;;1.80;;
11887;SDS011;6003;42.756;23.130;2022-12-10T10:43:47;3.53;;;2.10;;
11887;SDS011;6003;42.756;23.130;2022-12-10T10:46:17;2.00;;;1.50;;
11887;SDS011;6003;42.756;23.130;2022-12-10T10:48:48;1.30;;;1.30;;
11887;SDS011;6003;42.756;23.130;2022-12-10T10:51:17;1.83;;;1.50;;
11887;SDS011;6003;42.756;23.130;2022-12-10T10:53:49;1.47;;;1.37;;
11887;SDS011;6003;42.756;23.130;2022-12-10T10:56:18;5.77;;;3.37;;
11887;SDS011;6003;42.756;23.130;2022-12-10T10:58:49;4.73;;;2.80;;
11887;SDS011;6003;42.756;23.130;2022-12-10T11:01:21;4.13;;;2.90;;
11887;SDS011;6003;42.756;23.130;2022-12-10T11:03:52;4.47;;;2.13;;
11887;SDS011;6003;42.756;23.130;2022-12-10T11:06:21;3.57;;;1.77;;
11887;SDS011;6003;42.756;23.130;2022-12-10T11:08:49;2.83;;;2.00;;
11887;SDS011;6003;42.756;23.130;2022-12-10T11:11:22;2.83;;;1.63;;
11887;SDS011;6003;42.756;23.130;2022-12-10T11:13:51;5.20;;;2.13;;
11887;SDS011;6003;42.756;23.130;2022-12-10T11:16:19;2.43;;;1.70;;
11887;SDS011;6003;42.756;23.130;2022-12-10T11:18:54;4.60;;;1.50;;
11887;SDS011;6003;42.756;23.130;2022-12-10T11:21:27;2.43;;;1.60;;
11887;SDS011;6003;42.756;23.130;2022-12-10T11:23:55;1.30;;;1.30;;
11887;SDS011;6003;42.756;23.130;2022-12-10T11:26:36;1.73;;;1.57;;
11887;SDS011;6003;42.756;23.130;2022-12-10T11:29:15;1.73;;;1.60;;
11887;SDS011;6003;42.756;23.130;2022-12-10T11:31:59;4.00;;;1.53;;
11887;SDS011;6003;42.756;23.130;2022-12-10T11:34:40;8.17;;;1.60;;
11887;SDS011;6003;42.756;23.130;2022-12-10T11:37:18;2.53;;;1.53;;
11887;SDS011;6003;42.756;23.130;2022-12-10T11:39:58;3.00;;;1.57;;
11887;SDS011;6003;42.756;23.130;2022-12-10T11:42:45;6.60;;;2.53;;
11887;SDS011;6003;42.756;23.130;2022-12-10T11:45:18;3.73;;;2.27;;
11887;SDS011;6003;42.756;23.130;2022-12-10T11:47:57;3.23;;;2.20;;
11887;SDS011;6003;42.756;23.130;2022-12-10T11:50:37;2.20;;;2.10;;
11887;SDS011;6003;42.756;23.130;2022-12-10T11:53:14;6.10;;;3.47;;
11887;SDS011;6003;42.756;23.130;2022-12-10T11:55:53;3.80;;;2.23;;
11887;SDS011;6003;42.756;23.130;2022-12-10T11:58:38;1.97;;;1.87;;
11887;SDS011;6003;42.756;23.130;2022-12-10T12:01:18;5.63;;;2.03;;
11887;SDS011;6003;42.756;23.130;2022-12-10T12:06:59;2.87;;;2.67;;
11887;SDS011;6003;42.756;23.130;2022-12-10T12:09:50;6.00;;;1.90;;
11887;SDS011;6003;42.756;23.130;2022-12-10T12:12:28;2.90;;;2.07;;
11887;SDS011;6003;42.756;23.130;2022-12-10T12:15:08;2.87;;;1.73;;
11887;SDS011;6003;42.756;23.130;2022-12-10T12:17:45;2.40;;;2.20;;
11887;SDS011;6003;42.756;23.130;2022-12-10T12:20:17;1.80;;;1.70;;
11887;SDS011;6003;42.756;23.130;2022-12-10T12:22:51;4.20;;;2.97;;
11887;SDS011;6003;42.756;23.130;2022-12-10T12:25:23;2.23;;;2.03;;
11887;SDS011;6003;42.756;23.130;2022-12-10T12:27:55;2.13;;;1.93;;
11887;SDS011;6003;42.756;23.130;2022-12-10T12:30:28;1.97;;;1.80;;
11887;SDS011;6003;42.756;23.130;2022-12-10T12:33:00;3.80;;;2.27;;
11887;SDS011;6003;42.756;23.130;2022-12-10T12:35:32;3.80;;;2.40;;
11887;SDS011;6003;42.756;23.130;2022-12-10T12:38:11;2.40;;;2.20;;
11887;SDS011;6003;42.756;23.130;2022-12-10T12:40:48;2.83;;;2.30;;
11887;SDS011;6003;42.756;23.130;2022-12-10T12:43:24;4.40;;;2.00;;
11887;SDS011;6003;42.756;23.130;2022-12-10T12:45:57;4.40;;;2.53;;
11887;SDS011;6003;42.756;23.130;2022-12-10T12:48:25;2.23;;;1.97;;
11887;SDS011;6003;42.756;23.130;2022-12-10T12:51:02;1.57;;;1.47;;
11887;SDS011;6003;42.756;23.130;2022-12-10T12:53:34;3.23;;;2.40;;
11887;SDS011;6003;42.756;23.130;2022-12-10T12:56:03;6.20;;;2.00;;
11887;SDS011;6003;42.756;23.130;2022-12-10T12:58:35;1.70;;;1.60;;
11887;SDS011;6003;42.756;23.130;2022-12-10T13:01:12;3.30;;;1.83;;
11887;SDS011;6003;42.756;23.130;2022-12-10T13:10:42;4.80;;;2.10;;
11887;SDS011;6003;42.756;23.130;2022-12-10T13:13:22;2.23;;;1.60;;
11887;SDS011;6003;42.756;23.130;2022-12-10T13:15:51;5.57;;;2.20;;
11887;SDS011;6003;42.756;23.130;2022-12-10T13:18:19;2.40;;;2.17;;
11887;SDS011;6003;42.756;23.130;2022-12-10T13:20:49;2.30;;;2.20;;
11887;SDS011;6003;42.756;23.130;2022-12-10T13:23:33;3.80;;;2.00;;
11887;SDS011;6003;42.756;23.130;2022-12-10T13:26:26;2.17;;;2.03;;
11887;SDS011;6003;42.756;23.130;2022-12-10T13:28:55;2.63;;;1.70;;
11887;SDS011;6003;42.756;23.130;2022-12-10T13:31:38;3.07;;;1.90;;
11887;SDS011;6003;42.756;23.130;2022-12-10T13:34:22;2.53;;;2.27;;
11887;SDS011;6003;42.756;23.130;2022-12-10T13:40:00;2.77;;;2.17;;
11887;SDS011;6003;42.756;23.130;2022-12-10T13:42:44;3.80;;;2.13;;
11887;SDS011;6003;42.756;23.130;2022-12-10T13:45:31;5.13;;;2.73;;
11887;SDS011;6003;42.756;23.130;2022-12-10T13:48:16;2.50;;;2.20;;
11887;SDS011;6003;42.756;23.130;2022-12-10T13:51:06;3.73;;;2.60;;
11887;SDS011;6003;42.756;23.130;2022-12-10T13:53:40;5.00;;;2.50;;
11887;SDS011;6003;42.756;23.130;2022-12-10T13:56:15;2.73;;;2.40;;
11887;SDS011;6003;42.756;23.130;2022-12-10T13:58:54;6.40;;;2.57;;
11887;SDS011;6003;42.756;23.130;2022-12-10T14:01:37;7.73;;;2.83;;
11887;SDS011;6003;42.756;23.130;2022-12-10T14:04:21;2.60;;;2.40;;
11887;SDS011;6003;42.756;23.130;2022-12-10T14:07:05;2.33;;;2.13;;
11887;SDS011;6003;42.756;23.130;2022-12-10T14:09:34;6.10;;;2.27;;
11887;SDS011;6003;42.756;23.130;2022-12-10T14:12:10;3.97;;;2.30;;
11887;SDS011;6003;42.756;23.130;2022-12-10T14:14:44;3.53;;;1.83;;
11887;SDS011;6003;42.756;23.130;2022-12-10T14:17:32;9.10;;;3.47;;
11887;SDS011;6003;42.756;23.130;2022-12-10T14:20:02;3.73;;;3.00;;
11887;SDS011;6003;42.756;23.130;2022-12-10T14:22:33;3.00;;;2.80;;
11887;SDS011;6003;42.756;23.130;2022-12-10T14:25:03;3.43;;;2.50;;
11887;SDS011;6003;42.756;23.130;2022-12-10T14:27:32;4.37;;;2.40;;
11887;SDS011;6003;42.756;23.130;2022-12-10T14:30:04;6.90;;;5.80;;
11887;SDS011;6003;42.756;23.130;2022-12-10T14:32:33;3.60;;;3.30;;
11887;SDS011;6003;42.756;23.130;2022-12-10T14:35:02;2.43;;;2.33;;
11887;SDS011;6003;42.756;23.130;2022-12-10T14:37:33;6.67;;;5.67;;
11887;SDS011;6003;42.756;23.130;2022-12-10T14:40:03;4.33;;;3.17;;
11887;SDS011;6003;42.756;23.130;2022-12-10T14:42:32;8.83;;;2.70;;
11887;SDS011;6003;42.756;23.130;2022-12-10T14:45:00;4.40;;;3.27;;
11887;SDS011;6003;42.756;23.130;2022-12-10T14:47:33;4.50;;;2.20;;
11887;SDS011;6003;42.756;23.130;2022-12-10T14:50:03;4.97;;;2.40;;
11887;SDS011;6003;42.756;23.130;2022-12-10T14:52:33;2.97;;;2.03;;
11887;SDS011;6003;42.756;23.130;2022-12-10T14:55:05;5.87;;;2.80;;
11887;SDS011;6003;42.756;23.130;2022-12-10T14:57:38;3.10;;;2.67;;
11887;SDS011;6003;42.756;23.130;2022-12-10T15:00:10;4.37;;;2.70;;
11887;SDS011;6003;42.756;23.130;2022-12-10T15:02:42;2.60;;;2.40;;
11887;SDS011;6003;42.756;23.130;2022-12-10T15:05:12;4.93;;;3.10;;
11887;SDS011;6003;42.756;23.130;2022-12-10T15:07:41;7.00;;;4.03;;
11887;SDS011;6003;42.756;23.130;2022-12-10T15:10:17;5.50;;;3.60;;
11887;SDS011;6003;42.756;23.130;2022-12-10T15:12:49;2.80;;;2.30;;
11887;SDS011;6003;42.756;23.130;2022-12-10T15:15:19;2.77;;;2.53;;
11887;SDS011;6003;42.756;23.130;2022-12-10T15:17:57;4.17;;;2.50;;
11887;SDS011;6003;42.756;23.130;2022-12-10T15:20:26;5.83;;;3.40;;
11887;SDS011;6003;42.756;23.130;2022-12-10T15:23:05;9.30;;;3.43;;
11887;SDS011;6003;42.756;23.130;2022-12-10T15:25:40;3.87;;;2.70;;